This is the latest recevied weather packets stored in our database for station/object DL8FX-6. If no packets are shown the sender has not sent any weather packets the latest 10 day(s).
| Time | Temp. | Humidity | Pressure | Rain* | Wind** | Luminosity | Snow |
|---|---|---|---|---|---|---|---|
| 1777579231 | 10° C | 71% | 1027.2 hPa | 0 mm | - | - | - |
| 1777573855 | 14.44° C | 52% | 1026.6 hPa | 0 mm | - | - | - |
| 1777573251 | 15° C | 50% | 1026.5 hPa | 0 mm | - | - | - |
| 1777572668 | 16.11° C | 47% | 1026.5 hPa | 0 mm | - | - | - |
| 1777571440 | 17.22° C | 43% | 1026.5 hPa | 0 mm | - | - | - |
| 1777570232 | 20.56° C | 35% | 1026.5 hPa | 0 mm | - | - | - |
| 1777569628 | 21.67° C | 34% | 1026.4 hPa | 0 mm | - | - | - |
| 1777565462 | 21.11° C | 33% | 1026.9 hPa | 0 mm | - | - | - |
| 1777563649 | 21.67° C | 32% | 1026.7 hPa | 0 mm | - | - | - |
| 1777563045 | 21.67° C | 32% | 1026.8 hPa | 0 mm | - | - | - |
| 1777561233 | 21.67° C | 31% | 1027.2 hPa | 0 mm | - | - | - |
| 1777557669 | 22.78° C | 28% | 1027.7 hPa | 0 mm | - | - | - |
| 1777551627 | 20.56° C | 30% | 1028.5 hPa | 0 mm | - | - | - |
| 1777550419 | 21.67° C | 30% | 1028.6 hPa | 0 mm | - | - | - |
| 1777541420 | 20.56° C | 28% | 1030 hPa | 0 mm | - | - | - |
| 1777539064 | 20° C | 28% | 1030.2 hPa | 0 mm | - | - | - |
| 1777533043 | 17.22° C | 39% | 1030.6 hPa | 0 mm | - | - | - |
| 1777531816 | 15.56° C | 39% | 1030.7 hPa | 0 mm | - | - | - |
| 1777528251 | 14.44° C | 49% | 1030.3 hPa | 0 mm | - | - | - |
| 1777521064 | 0.56° C | 83% | 1030.2 hPa | 0 mm | - | - | - |
| 1777519252 | 0.56° C | 83% | 1030.1 hPa | 0 mm | - | - | - |
| 1777518044 | 0.56° C | 83% | 1029.9 hPa | 0 mm | - | - | - |
| 1777509066 | 1.67° C | 76% | 1029.7 hPa | 0 mm | - | - | - |
| 1777507234 | 2.22° C | 76% | 1029.8 hPa | 0 mm | - | - | - |
| 1777504818 | 2.78° C | 72% | 1029.8 hPa | 0 mm | - | - | - |
* Rain latest hour (hover to see other rain measurements)
** Current wind speed in m/s (hover to see current wind gust speed)